Time;durP1;ratioP1;P1;durP2;ratioP2;P2;SDS_P1;SDS_P2;PMS_P1;PMS_P2;Temp;Humidity;BMP_temperature;BMP_pressure;BME280_temperature;BME280_humidity;BME280_pressure;Samples;Min_cycle;Max_cycle;Signal;HPM_P1;HPM_P2
2023/10/12 00:00:56;;;;;;;6.47;3.77;;;19.20;88.00;;;;;;5072683;28;20503;-60
2023/10/12 00:03:25;;;;;;;9.60;4.23;;;19.20;87.80;;;;;;5073223;28;20446;-60
2023/10/12 00:05:52;;;;;;;7.77;4.63;;;19.20;88.00;;;;;;5072961;28;20477;-60
2023/10/12 00:08:25;;;;;;;7.90;4.57;;;19.20;88.00;;;;;;5073164;28;20449;-60
2023/10/12 00:10:54;;;;;;;7.67;5.00;;;19.20;87.50;;;;;;5072621;28;20539;-60
2023/10/12 00:13:27;;;;;;;6.43;4.33;;;19.20;87.40;;;;;;5072464;28;20444;-60
2023/10/12 00:15:55;;;;;;;7.03;4.40;;;19.20;87.20;;;;;;5072781;28;20421;-60
2023/10/12 00:18:23;;;;;;;6.00;4.40;;;19.20;87.30;;;;;;5072618;28;20798;-60
2023/10/12 00:20:54;;;;;;;8.70;4.77;;;19.20;87.50;;;;;;5072869;28;20445;-60
2023/10/12 00:23:21;;;;;;;8.30;6.93;;;19.10;87.40;;;;;;5072659;28;20923;-60
2023/10/12 00:25:54;;;;;;;6.40;4.47;;;19.20;87.60;;;;;;5073107;28;20446;-60
2023/10/12 00:28:22;;;;;;;7.60;4.33;;;19.10;87.70;;;;;;5075678;28;20433;-60
2023/10/12 00:30:52;;;;;;;8.33;4.53;;;19.20;88.00;;;;;;5076644;28;20442;-60
2023/10/12 00:33:19;;;;;;;13.20;5.30;;;19.10;88.20;;;;;;5077109;28;20427;-60
2023/10/12 00:35:52;;;;;;;7.67;5.00;;;19.10;88.70;;;;;;5077138;28;20453;-59
2023/10/12 00:38:24;;;;;;;8.80;4.93;;;19.10;89.30;;;;;;5076704;28;21050;-61
2023/10/12 00:40:55;;;;;;;6.10;4.30;;;19.00;89.50;;;;;;5076821;28;20478;-60
2023/10/12 00:43:22;;;;;;;5.70;4.30;;;19.00;90.30;;;;;;5077017;28;20433;-61
2023/10/12 00:45:50;;;;;;;7.50;4.43;;;19.00;90.20;;;;;;5076717;28;20445;-60
2023/10/12 00:48:20;;;;;;;10.00;6.00;;;19.00;90.60;;;;;;5077586;28;20487;-59
2023/10/12 00:50:49;;;;;;;11.30;5.33;;;18.90;91.20;;;;;;5077393;28;20477;-59
2023/10/12 00:53:23;;;;;;;9.17;5.40;;;18.80;92.10;;;;;;5077022;28;20538;-59
2023/10/12 00:55:52;;;;;;;9.00;5.37;;;18.60;93.10;;;;;;5076941;28;20501;-60
2023/10/12 00:58:22;;;;;;;9.13;6.03;;;18.50;94.30;;;;;;5076821;28;20536;-59
2023/10/12 01:00:51;;;;;;;8.70;5.13;;;18.30;95.60;;;;;;5076482;28;20537;-60
2023/10/12 01:03:36;;;;;;;7.93;5.23;;;18.20;96.70;;;;;;5076554;28;20444;-59
2023/10/12 01:06:20;;;;;;;7.23;5.20;;;18.10;98.00;;;;;;5076786;28;20434;-60
2023/10/12 01:08:48;;;;;;;12.57;6.20;;;18.00;99.10;;;;;;5076757;28;20438;-59
2023/10/12 01:11:20;;;;;;;9.27;5.00;;;17.90;99.90;;;;;;5076487;28;20489;-59
2023/10/12 01:13:49;;;;;;;8.10;5.80;;;17.80;99.90;;;;;;5076610;28;20430;-59
2023/10/12 01:16:23;;;;;;;8.30;5.97;;;17.80;99.90;;;;;;5076198;28;20452;-59
2023/10/12 01:19:00;;;;;;;17.17;6.80;;;17.80;99.90;;;;;;5076776;28;20422;-59
2023/10/12 01:21:28;;;;;;;8.97;6.20;;;17.80;99.90;;;;;;5076546;28;20462;-59
2023/10/12 01:24:11;;;;;;;9.63;5.80;;;17.80;99.90;;;;;;5076825;28;20453;-60
2023/10/12 01:26:38;;;;;;;13.20;6.63;;;17.60;99.90;;;;;;5076365;28;20423;-59
2023/10/12 01:29:10;;;;;;;9.70;6.53;;;17.40;99.90;;;;;;5077321;28;20464;-60
2023/10/12 01:31:43;;;;;;;10.63;6.37;;;17.10;99.90;;;;;;5076109;28;20462;-60
2023/10/12 01:34:13;;;;;;;9.47;6.77;;;16.90;99.90;;;;;;5076657;28;20525;-60
2023/10/12 01:36:43;;;;;;;12.33;6.27;;;16.70;99.90;;;;;;5077110;28;20469;-60
2023/10/12 01:39:12;;;;;;;13.50;6.00;;;16.60;99.90;;;;;;5076368;28;20796;-60
2023/10/12 01:41:41;;;;;;;14.53;8.57;;;16.50;99.90;;;;;;5077013;28;20466;-60
2023/10/12 01:44:10;;;;;;;15.97;6.97;;;16.40;99.90;;;;;;5076267;28;20447;-59
2023/10/12 01:46:39;;;;;;;9.67;6.67;;;16.30;99.90;;;;;;5076517;28;20455;-60
2023/10/12 01:49:06;;;;;;;12.93;7.87;;;16.20;99.90;;;;;;5076335;28;20540;-60
2023/10/12 01:51:36;;;;;;;13.63;8.13;;;16.10;99.90;;;;;;5075932;28;20462;-61
2023/10/12 01:54:05;;;;;;;13.27;8.40;;;16.10;99.90;;;;;;5075783;28;20946;-62
2023/10/12 01:56:34;;;;;;;9.20;8.00;;;16.00;99.90;;;;;;5075093;28;20887;-61
2023/10/12 01:59:06;;;;;;;14.10;9.03;;;15.90;99.90;;;;;;5075581;28;20471;-60
2023/10/12 02:01:34;;;;;;;13.83;8.73;;;15.80;99.90;;;;;;5091695;22;20562;-65
2023/10/12 02:04:02;;;;;;;14.27;9.03;;;15.70;99.90;;;;;;5035229;28;20442;-65
2023/10/12 02:06:29;;;;;;;14.40;9.50;;;15.70;99.90;;;;;;5034849;28;20453;-65
2023/10/12 02:09:08;;;;;;;13.23;9.57;;;15.60;99.90;;;;;;5035002;28;20441;-65
2023/10/12 02:11:45;;;;;;;14.90;10.70;;;15.60;99.90;;;;;;5035621;28;20461;-65
2023/10/12 02:14:14;;;;;;;13.93;9.30;;;15.50;99.90;;;;;;5035053;28;20421;-64
2023/10/12 02:16:53;;;;;;;11.83;9.70;;;15.50;99.90;;;;;;5035272;28;20441;-66
2023/10/12 02:19:31;;;;;;;15.30;9.63;;;15.50;99.90;;;;;;5035016;28;20520;-65
2023/10/12 02:22:01;;;;;;;13.50;9.80;;;15.40;99.90;;;;;;5034614;28;20468;-65
2023/10/12 02:24:28;;;;;;;15.00;10.00;;;15.40;99.90;;;;;;5034570;28;20907;-65
2023/10/12 02:27:00;;;;;;;11.70;9.23;;;15.40;99.90;;;;;;5034552;28;20476;-66
2023/10/12 02:29:29;;;;;;;16.37;10.97;;;15.40;99.90;;;;;;5034761;28;20429;-66
2023/10/12 02:31:58;;;;;;;12.90;9.07;;;15.30;99.90;;;;;;5034563;28;20465;-66
2023/10/12 02:34:26;;;;;;;15.50;9.93;;;15.30;99.90;;;;;;5034585;28;20441;-66
2023/10/12 02:37:07;;;;;;;14.47;10.10;;;15.30;99.90;;;;;;5034207;28;20821;-66
2023/10/12 02:39:37;;;;;;;13.10;10.10;;;15.20;99.90;;;;;;5034517;28;20479;-66
2023/10/12 02:42:16;;;;;;;15.90;9.93;;;15.20;99.90;;;;;;5034330;28;20471;-66
2023/10/12 02:44:56;;;;;;;22.30;10.83;;;15.20;99.90;;;;;;5034382;28;20487;-66
2023/10/12 02:47:24;;;;;;;15.10;9.57;;;15.10;99.90;;;;;;5034475;28;20811;-66
2023/10/12 02:49:59;;;;;;;12.37;10.23;;;15.10;99.90;;;;;;5034285;28;20445;-66
2023/10/12 02:52:27;;;;;;;15.60;10.70;;;15.10;99.90;;;;;;5033211;28;20464;-66
2023/10/12 02:54:55;;;;;;;13.33;10.70;;;15.00;99.90;;;;;;5034265;28;20451;-66
2023/10/12 02:57:25;;;;;;;14.20;10.73;;;15.00;99.90;;;;;;5033761;28;21053;-66
2023/10/12 02:59:57;;;;;;;14.17;10.10;;;14.90;99.90;;;;;;5034154;28;20437;-65
2023/10/12 03:02:32;;;;;;;15.20;10.27;;;14.90;99.90;;;;;;5033594;28;20506;-66
2023/10/12 03:05:00;;;;;;;17.90;11.50;;;14.80;99.90;;;;;;5034023;28;20467;-65
2023/10/12 03:07:28;;;;;;;17.43;11.33;;;14.80;99.90;;;;;;5033911;28;20472;-66
2023/10/12 03:09:58;;;;;;;16.93;10.77;;;14.70;99.90;;;;;;5033567;28;20998;-65
2023/10/12 03:12:33;;;;;;;17.50;10.73;;;14.70;99.90;;;;;;5033762;28;20461;-65
2023/10/12 03:15:01;;;;;;;11.60;10.00;;;14.60;99.90;;;;;;5033490;28;20479;-65
2023/10/12 03:17:28;;;;;;;17.73;11.13;;;14.60;99.90;;;;;;5033764;28;20567;-65
2023/10/12 03:19:57;;;;;;;16.10;9.47;;;14.60;99.90;;;;;;5033740;28;20437;-65
2023/10/12 03:22:31;;;;;;;17.77;12.20;;;14.50;99.90;;;;;;5033595;28;20461;-67
2023/10/12 03:25:13;;;;;;;17.17;10.07;;;14.50;99.90;;;;;;5033945;28;20899;-65
2023/10/12 03:27:49;;;;;;;13.60;10.57;;;14.40;99.90;;;;;;5033688;28;20453;-65
2023/10/12 03:30:17;;;;;;;16.47;10.30;;;14.40;99.90;;;;;;5033606;28;20866;-66
2023/10/12 03:32:45;;;;;;;13.03;10.63;;;14.40;99.90;;;;;;5033406;28;20465;-66
2023/10/12 03:35:13;;;;;;;18.10;12.27;;;14.40;99.90;;;;;;5033532;28;20437;-65
2023/10/12 03:37:47;;;;;;;16.97;12.33;;;14.30;99.90;;;;;;5033396;28;20506;-65
2023/10/12 03:43:08;;;;;;;14.60;10.33;;;14.30;99.90;;;;;;5033082;28;20957;-65
2023/10/12 03:45:38;;;;;;;17.53;11.90;;;14.30;99.90;;;;;;5033453;28;20433;-66
2023/10/12 03:48:24;;;;;;;15.47;11.83;;;14.30;99.90;;;;;;5033753;28;20432;-66
2023/10/12 03:50:59;;;;;;;19.70;12.20;;;14.30;99.90;;;;;;5033384;28;20439;-64
2023/10/12 03:53:31;;;;;;;15.40;11.20;;;14.30;99.90;;;;;;5033023;28;20547;-65
2023/10/12 03:55:58;;;;;;;16.70;11.90;;;14.30;99.90;;;;;;5032818;28;20452;-65
2023/10/12 03:58:26;;;;;;;15.27;11.80;;;14.30;99.90;;;;;;5032949;28;20485;-66
2023/10/12 04:01:10;;;;;;;20.50;12.57;;;14.30;99.90;;;;;;5057663;22;20938;-59
2023/10/12 04:03:40;;;;;;;15.10;11.40;;;14.30;99.90;;;;;;5033115;28;20441;-59
2023/10/12 04:06:23;;;;;;;17.77;12.43;;;14.30;99.90;;;;;;5033047;28;20452;-60
2023/10/12 04:12:30;;;;;;;20.53;13.17;;;14.30;99.90;;;;;;5152647;27;20549;-61
2023/10/12 04:14:56;;;;;;;18.47;13.17;;;14.30;99.90;;;;;;5152568;27;20432;-62
2023/10/12 04:20:15;;;;;;;20.10;12.83;;;14.30;99.90;;;;;;5150713;27;20446;-61
2023/10/12 04:23:04;;;;;;;22.50;15.13;;;14.30;99.90;;;;;;5152559;27;20459;-60
2023/10/12 04:25:45;;;;;;;24.73;13.60;;;14.30;99.90;;;;;;5151822;27;20935;-61
2023/10/12 04:28:19;;;;;;;24.20;14.87;;;14.30;99.90;;;;;;5153078;27;20434;-61
2023/10/12 04:33:50;;;;;;;24.93;16.07;;;14.30;99.90;;;;;;5108441;28;20799;-61
2023/10/12 04:36:27;;;;;;;26.40;16.50;;;14.30;99.90;;;;;;5144324;27;20443;-61
2023/10/12 04:39:15;;;;;;;26.60;16.00;;;14.30;99.90;;;;;;5151585;27;20904;-61
2023/10/12 04:41:58;;;;;;;21.83;15.20;;;14.30;99.90;;;;;;5151844;27;20881;-62
2023/10/12 04:44:39;;;;;;;21.17;15.30;;;14.30;99.90;;;;;;5151662;27;20425;-61
2023/10/12 04:47:07;;;;;;;23.03;14.80;;;14.30;99.90;;;;;;5151377;27;20436;-62
2023/10/12 04:52:24;;;;;;;21.70;14.47;;;14.20;99.90;;;;;;5151979;27;20570;-61
2023/10/12 04:55:00;;;;;;;22.97;14.70;;;14.30;99.90;;;;;;5151367;27;20905;-62
2023/10/12 04:57:27;;;;;;;26.43;16.20;;;14.30;99.90;;;;;;5151938;27;20427;-62
2023/10/12 05:00:07;;;;;;;27.87;16.80;;;14.30;99.90;;;;;;5151124;27;20808;-62
2023/10/12 05:02:43;;;;;;;24.23;15.57;;;14.30;99.90;;;;;;5150965;27;20463;-62
2023/10/12 05:05:37;;;;;;;26.43;14.90;;;14.30;99.90;;;;;;5151319;27;20985;-61
2023/10/12 05:08:03;;;;;;;26.20;16.80;;;14.30;99.90;;;;;;5151282;27;20442;-61
2023/10/12 05:10:46;;;;;;;26.50;16.40;;;14.30;99.90;;;;;;5151172;27;20486;-61
2023/10/12 05:13:19;;;;;;;27.23;17.33;;;14.30;99.90;;;;;;5151421;27;20542;-61
2023/10/12 05:16:03;;;;;;;26.10;17.73;;;14.30;99.90;;;;;;5151303;27;20436;-62
2023/10/12 05:18:31;;;;;;;27.70;16.67;;;14.30;99.90;;;;;;5151504;27;20924;-62
2023/10/12 05:20:58;;;;;;;25.07;15.97;;;14.30;99.90;;;;;;5151148;27;20474;-61
2023/10/12 05:23:25;;;;;;;28.07;17.17;;;14.30;99.90;;;;;;5138838;27;20443;-62
2023/10/12 05:26:07;;;;;;;30.87;17.33;;;14.30;99.90;;;;;;5138220;27;20448;-62
2023/10/12 05:28:36;;;;;;;31.90;17.90;;;14.30;99.90;;;;;;5137473;27;20526;-63
2023/10/12 05:31:13;;;;;;;30.00;18.43;;;14.30;99.90;;;;;;5136239;27;20893;-62
2023/10/12 05:33:43;;;;;;;22.47;16.33;;;14.30;99.90;;;;;;5136975;27;20425;-61
2023/10/12 05:36:10;;;;;;;29.73;16.93;;;14.30;99.90;;;;;;5137324;27;20906;-61
2023/10/12 05:38:38;;;;;;;29.13;18.90;;;14.30;99.90;;;;;;5137487;27;20798;-60
2023/10/12 05:41:08;;;;;;;31.40;17.90;;;14.40;99.90;;;;;;5137122;27;20456;-60
2023/10/12 05:43:36;;;;;;;26.90;16.73;;;14.40;99.90;;;;;;5137015;27;20448;-61
2023/10/12 05:46:10;;;;;;;16.43;11.80;;;14.40;99.90;;;;;;5136658;27;20440;-62
2023/10/12 05:48:41;;;;;;;6.87;4.50;;;14.40;99.90;;;;;;5136373;27;20871;-59
2023/10/12 05:51:10;;;;;;;3.27;1.97;;;14.10;99.90;;;;;;5137153;27;20492;-61
2023/10/12 05:53:37;;;;;;;2.10;1.90;;;13.80;99.90;;;;;;5137688;27;20443;-62
2023/10/12 05:56:05;;;;;;;3.57;2.23;;;13.50;99.90;;;;;;5137885;27;20493;-62
2023/10/12 05:58:33;;;;;;;5.43;2.10;;;13.30;99.90;;;;;;5138617;27;20443;-60
2023/10/12 06:01:08;;;;;;;2.50;1.57;;;13.10;99.90;;;;;;5137913;27;20451;-62
2023/10/12 06:03:36;;;;;;;4.90;2.20;;;13.10;99.90;;;;;;5137690;27;20419;-61
2023/10/12 06:06:03;;;;;;;3.70;1.70;;;13.00;99.90;;;;;;5136629;27;20447;-61
2023/10/12 06:08:32;;;;;;;4.37;1.90;;;13.00;99.90;;;;;;5136492;27;20924;-62
2023/10/12 06:10:59;;;;;;;2.03;1.80;;;13.00;99.90;;;;;;5136515;27;20533;-62
2023/10/12 06:13:31;;;;;;;2.50;1.97;;;13.00;99.90;;;;;;5135976;27;20945;-61
2023/10/12 06:15:57;;;;;;;3.03;1.80;;;13.10;99.90;;;;;;5136026;27;20419;-62
2023/10/12 06:18:25;;;;;;;4.07;2.80;;;13.00;99.90;;;;;;5136186;27;20544;-60
2023/10/12 06:20:58;;;;;;;4.20;2.93;;;13.00;99.90;;;;;;5137335;27;20912;-62
2023/10/12 06:23:25;;;;;;;4.93;2.53;;;12.90;99.90;;;;;;5135946;27;20455;-62
2023/10/12 06:25:52;;;;;;;7.90;2.87;;;12.90;99.90;;;;;;5136043;27;20446;-62
2023/10/12 06:28:18;;;;;;;5.90;2.67;;;12.90;99.90;;;;;;5135475;27;20446;-62
2023/10/12 06:30:46;;;;;;;3.63;2.20;;;12.80;99.90;;;;;;5135663;27;20441;-62
2023/10/12 06:33:15;;;;;;;3.60;1.83;;;12.80;99.90;;;;;;5135482;27;20518;-61
2023/10/12 06:35:58;;;;;;;2.67;1.90;;;12.80;99.90;;;;;;5135022;27;20441;-62
2023/10/12 06:38:38;;;;;;;3.17;2.00;;;12.80;99.90;;;;;;5135422;27;20426;-63
2023/10/12 06:43:58;;;;;;;5.40;2.00;;;12.70;99.90;;;;;;5135213;27;20848;-62
2023/10/12 06:46:27;;;;;;;3.80;1.80;;;12.70;99.90;;;;;;5135127;27;20433;-62
2023/10/12 06:49:00;;;;;;;5.60;2.30;;;12.70;99.90;;;;;;5135106;27;20935;-61
2023/10/12 06:51:28;;;;;;;4.93;2.30;;;12.70;99.90;;;;;;5134823;27;20526;-62
2023/10/12 06:54:18;;;;;;;4.40;2.10;;;12.80;99.90;;;;;;5135523;27;20528;-62
2023/10/12 06:56:50;;;;;;;4.63;1.87;;;12.70;99.90;;;;;;5134986;27;20486;-61
2023/10/12 06:59:22;;;;;;;4.70;1.90;;;12.70;99.90;;;;;;5135015;27;20424;-61
2023/10/12 07:01:53;;;;;;;4.10;1.73;;;12.70;99.90;;;;;;5135484;27;20458;-61
2023/10/12 07:04:26;;;;;;;6.00;2.90;;;12.70;99.90;;;;;;5135169;27;20514;-61
2023/10/12 07:06:56;;;;;;;7.20;1.93;;;12.80;99.90;;;;;;5134649;27;20458;-62
2023/10/12 07:09:27;;;;;;;8.77;2.00;;;12.70;99.90;;;;;;5134574;27;20513;-61
2023/10/12 07:11:54;;;;;;;5.50;2.17;;;12.80;99.90;;;;;;5134151;27;20605;-62
2023/10/12 07:14:30;;;;;;;6.70;2.57;;;12.70;99.90;;;;;;5135080;27;20445;-61
2023/10/12 07:17:01;;;;;;;4.53;2.07;;;12.70;99.90;;;;;;5134544;27;20538;-61
2023/10/12 07:19:27;;;;;;;8.20;2.30;;;12.70;99.90;;;;;;5135200;27;20434;-61
2023/10/12 07:21:55;;;;;;;4.33;2.03;;;12.60;99.90;;;;;;5134589;27;20458;-61
2023/10/12 07:24:23;;;;;;;5.33;2.67;;;12.60;99.90;;;;;;5134710;27;20448;-61
2023/10/12 07:26:50;;;;;;;5.20;2.53;;;12.60;99.90;;;;;;5134761;27;20500;-60
2023/10/12 07:29:35;;;;;;;8.90;2.60;;;12.50;99.90;;;;;;5134762;27;20440;-60
2023/10/12 07:32:08;;;;;;;12.13;3.17;;;12.50;99.90;;;;;;5134976;27;20837;-62
2023/10/12 07:34:34;;;;;;;3.57;2.27;;;12.50;99.90;;;;;;5134750;27;20911;-61
2023/10/12 07:37:02;;;;;;;5.67;1.93;;;12.50;99.90;;;;;;5134459;27;20442;-63
2023/10/12 07:39:42;;;;;;;7.40;2.87;;;12.50;99.90;;;;;;5135223;27;20450;-61
2023/10/12 07:42:12;;;;;;;6.80;2.27;;;12.50;99.90;;;;;;5134480;27;20832;-60
2023/10/12 07:44:42;;;;;;;4.83;2.00;;;12.40;99.90;;;;;;5134797;27;20844;-61
2023/10/12 07:47:18;;;;;;;3.93;2.37;;;12.40;99.90;;;;;;5134901;27;20440;-62
2023/10/12 07:49:51;;;;;;;5.67;2.53;;;12.40;99.90;;;;;;5134766;27;20421;-61
2023/10/12 07:52:38;;;;;;;11.50;3.10;;;12.40;99.90;;;;;;5134952;27;20483;-62
2023/10/12 07:55:12;;;;;;;7.20;2.27;;;12.40;99.90;;;;;;5135480;27;20461;-61
2023/10/12 07:57:39;;;;;;;6.03;2.33;;;12.40;99.90;;;;;;5134953;27;20473;-62
2023/10/12 08:03:17;;;;;;;7.73;2.73;;;12.50;99.90;;;;;;5134209;27;20958;-62
2023/10/12 08:05:45;;;;;;;5.20;2.37;;;12.50;99.90;;;;;;5134847;27;20483;-61
2023/10/12 08:13:39;;;;;;;7.13;3.07;;;12.50;99.90;;;;;;5134108;27;20998;-62
2023/10/12 08:16:13;;;;;;;9.33;3.00;;;12.50;99.90;;;;;;5134330;27;20476;-62
2023/10/12 08:19:08;;;;;;;5.73;2.00;;;12.50;99.90;;;;;;5133934;27;20906;-61
2023/10/12 08:21:38;;;;;;;9.10;2.37;;;12.40;99.90;;;;;;5134260;27;20466;-62
2023/10/12 08:24:10;;;;;;;6.57;2.63;;;12.40;99.90;;;;;;5134206;27;20489;-61
2023/10/12 08:26:49;;;;;;;9.60;2.40;;;12.40;99.90;;;;;;5134174;27;20419;-62
2023/10/12 08:32:12;;;;;;;9.30;2.40;;;12.50;99.90;;;;;;5133961;27;20467;-62
2023/10/12 08:35:10;;;;;;;12.17;2.90;;;12.50;99.90;;;;;;5134186;27;20433;-62
2023/10/12 08:37:35;;;;;;;9.30;2.63;;;12.50;99.90;;;;;;5133958;28;20467;-62
2023/10/12 08:40:17;;;;;;;10.47;3.50;;;12.40;99.90;;;;;;5134571;27;20423;-62
2023/10/12 08:42:55;;;;;;;9.30;3.17;;;12.30;99.90;;;;;;5133795;27;20468;-61
2023/10/12 08:45:26;;;;;;;6.83;2.80;;;12.30;99.90;;;;;;5134200;27;20465;-62
2023/10/12 08:47:54;;;;;;;6.27;2.70;;;12.30;99.90;;;;;;5134024;27;20430;-62
2023/10/12 08:50:47;;;;;;;8.67;2.37;;;12.30;99.90;;;;;;5134273;27;20550;-62
2023/10/12 08:53:20;;;;;;;12.27;4.17;;;12.30;99.90;;;;;;5133708;27;20465;-62
2023/10/12 08:55:50;;;;;;;9.00;3.17;;;12.30;99.90;;;;;;5134458;27;20420;-62
2023/10/12 08:58:31;;;;;;;6.70;3.30;;;12.30;99.90;;;;;;5135900;27;20959;-62
2023/10/12 09:01:10;;;;;;;10.47;4.70;;;12.40;99.90;;;;;;5137858;27;20524;-60
2023/10/12 09:03:44;;;;;;;12.20;4.10;;;12.50;99.90;;;;;;5138603;27;20506;-63
2023/10/12 09:08:57;;;;;;;10.03;2.70;;;12.70;99.90;;;;;;5137529;27;20472;-63
2023/10/12 09:11:29;;;;;;;5.37;1.73;;;12.70;99.90;;;;;;5137240;27;20469;-62
2023/10/12 09:13:58;;;;;;;8.63;2.43;;;12.70;99.90;;;;;;5137114;27;20431;-62
2023/10/12 09:16:26;;;;;;;7.93;1.90;;;12.70;99.90;;;;;;5137239;27;20443;-61
2023/10/12 09:18:58;;;;;;;10.07;2.40;;;12.60;99.90;;;;;;5137165;27;20453;-61
2023/10/12 09:21:38;;;;;;;12.40;2.37;;;12.60;99.90;;;;;;5137542;27;20842;-63
2023/10/12 09:24:07;;;;;;;6.83;3.17;;;12.60;99.90;;;;;;5137555;27;20430;-61
2023/10/12 09:26:35;;;;;;;6.60;1.90;;;12.60;99.90;;;;;;5137563;27;20453;-62
2023/10/12 09:29:13;;;;;;;6.10;2.23;;;12.60;99.90;;;;;;5137831;27;20530;-61
2023/10/12 09:31:54;;;;;;;7.27;2.30;;;12.70;99.90;;;;;;5137180;27;20482;-62
2023/10/12 09:34:42;;;;;;;11.93;2.30;;;12.80;99.90;;;;;;5137417;27;20467;-61
2023/10/12 09:37:16;;;;;;;6.30;2.50;;;12.80;99.90;;;;;;5137348;27;20560;-61
2023/10/12 09:39:45;;;;;;;7.80;2.73;;;12.90;99.90;;;;;;5137128;27;20431;-62
2023/10/12 09:42:22;;;;;;;7.87;2.47;;;13.00;99.90;;;;;;5137899;27;20471;-62
2023/10/12 09:44:53;;;;;;;4.23;2.60;;;13.10;99.90;;;;;;5137258;27;20948;-61
2023/10/12 09:47:25;;;;;;;10.00;2.83;;;13.30;99.90;;;;;;5137384;27;20897;-63
2023/10/12 09:49:56;;;;;;;5.40;1.90;;;13.60;99.90;;;;;;5137429;27;20504;-61
2023/10/12 09:52:25;;;;;;;9.50;2.13;;;13.80;99.90;;;;;;5137235;27;20483;-61
2023/10/12 09:55:07;;;;;;;5.87;2.10;;;13.90;99.90;;;;;;5137903;27;20858;-62
2023/10/12 09:57:36;;;;;;;8.97;2.50;;;14.00;99.90;;;;;;5137255;27;20568;-63
2023/10/12 10:00:18;;;;;;;6.53;1.97;;;14.20;99.90;;;;;;5139095;27;20447;-62
2023/10/12 10:02:49;;;;;;;5.40;2.40;;;14.30;99.90;;;;;;5137503;27;20459;-62
2023/10/12 10:05:27;;;;;;;5.60;2.70;;;14.50;99.90;;;;;;5137434;27;20444;-62
2023/10/12 10:08:03;;;;;;;7.07;2.30;;;14.50;99.90;;;;;;5138034;27;20429;-61
2023/10/12 10:10:32;;;;;;;8.17;1.83;;;14.60;99.90;;;;;;5137359;27;20456;-62
2023/10/12 10:13:00;;;;;;;8.13;2.03;;;14.60;99.90;;;;;;5137785;27;20527;-62
2023/10/12 10:15:36;;;;;;;6.13;1.87;;;14.70;99.90;;;;;;5137385;27;20930;-62
2023/10/12 10:18:04;;;;;;;10.57;2.77;;;14.80;99.90;;;;;;5136968;27;20429;-62
2023/10/12 10:20:46;;;;;;;8.10;2.20;;;14.80;99.90;;;;;;5136900;27;20445;-61
2023/10/12 10:23:15;;;;;;;7.03;2.10;;;14.90;99.90;;;;;;5136533;27;20417;-61
2023/10/12 10:25:56;;;;;;;5.50;2.00;;;14.90;99.90;;;;;;5136420;27;20440;-61
2023/10/12 10:28:26;;;;;;;7.70;2.63;;;15.00;99.90;;;;;;5136314;27;20425;-62
2023/10/12 10:30:59;;;;;;;5.80;2.30;;;15.10;99.90;;;;;;5136108;27;20439;-62
2023/10/12 10:33:28;;;;;;;6.27;2.50;;;15.20;99.90;;;;;;5136429;27;20487;-62
2023/10/12 10:36:00;;;;;;;6.60;2.10;;;15.30;99.90;;;;;;5136235;27;20445;-61
2023/10/12 10:38:32;;;;;;;4.80;2.10;;;15.30;99.90;;;;;;5135921;27;20814;-62
2023/10/12 10:41:07;;;;;;;8.20;2.27;;;15.40;99.90;;;;;;5135910;27;20429;-62
2023/10/12 10:43:37;;;;;;;8.20;2.50;;;15.40;99.90;;;;;;5135747;27;20429;-63
2023/10/12 10:46:10;;;;;;;9.27;2.83;;;15.50;99.90;;;;;;5135289;27;21055;-62
2023/10/12 10:48:38;;;;;;;4.70;2.37;;;15.50;99.90;;;;;;5135705;27;20512;-62
2023/10/12 10:51:11;;;;;;;14.70;3.23;;;15.50;99.90;;;;;;5135338;27;20457;-62
2023/10/12 10:53:38;;;;;;;9.07;2.57;;;15.60;99.90;;;;;;5135429;27;20876;-61
2023/10/12 10:56:14;;;;;;;8.30;3.03;;;15.70;99.90;;;;;;5135558;27;20953;-63
2023/10/12 10:58:45;;;;;;;6.20;2.37;;;15.80;99.90;;;;;;5136551;27;20506;-62
2023/10/12 11:01:19;;;;;;;6.90;2.53;;;16.00;99.90;;;;;;5135853;27;20493;-61
2023/10/12 11:03:47;;;;;;;4.73;2.07;;;16.20;99.90;;;;;;5135433;27;20883;-61
2023/10/12 11:06:21;;;;;;;11.80;2.57;;;16.20;99.90;;;;;;5135392;27;20437;-63
2023/10/12 11:09:05;;;;;;;9.47;2.53;;;16.10;99.90;;;;;;5135465;27;20422;-61
2023/10/12 11:11:38;;;;;;;11.23;2.93;;;16.00;99.90;;;;;;5135184;27;20566;-62
2023/10/12 11:14:06;;;;;;;8.20;2.90;;;15.90;99.90;;;;;;5136730;27;20458;-62
2023/10/12 11:16:36;;;;;;;12.20;3.20;;;15.90;99.90;;;;;;5135825;27;20518;-63
2023/10/12 11:19:08;;;;;;;5.70;2.80;;;15.90;99.90;;;;;;5136490;27;20429;-62
2023/10/12 11:21:35;;;;;;;8.73;3.97;;;16.00;99.90;;;;;;5137414;27;20470;-61
2023/10/12 11:24:09;;;;;;;5.30;2.57;;;16.10;99.90;;;;;;5136604;27;20935;-62
2023/10/12 11:26:51;;;;;;;7.57;3.60;;;16.10;99.90;;;;;;5134705;27;20525;-63
2023/10/12 11:29:17;;;;;;;9.07;3.37;;;16.20;99.90;;;;;;5135629;27;20427;-63
2023/10/12 11:32:08;;;;;;;6.97;2.90;;;16.20;99.90;;;;;;5134568;27;20473;-62
2023/10/12 11:34:35;;;;;;;5.17;3.30;;;16.20;99.90;;;;;;5135169;27;20512;-61
2023/10/12 11:37:02;;;;;;;6.57;3.00;;;16.10;99.90;;;;;;5135022;27;20451;-62
2023/10/12 11:39:41;;;;;;;9.70;2.87;;;16.10;99.90;;;;;;5135257;27;20484;-63
2023/10/12 11:42:12;;;;;;;7.60;3.70;;;16.00;99.90;;;;;;5134499;27;20466;-61
2023/10/12 11:44:42;;;;;;;5.63;3.13;;;15.90;99.90;;;;;;5135726;27;20529;-63
2023/10/12 11:47:13;;;;;;;11.83;5.00;;;15.80;99.90;;;;;;5139381;27;20425;-62
2023/10/12 11:49:49;;;;;;;6.10;2.40;;;15.60;99.90;;;;;;5144372;27;20463;-62
2023/10/12 11:52:29;;;;;;;8.07;2.83;;;15.60;99.90;;;;;;5135953;27;20490;-61
2023/10/12 11:55:01;;;;;;;11.37;3.73;;;15.50;99.90;;;;;;5134492;27;20836;-62
2023/10/12 11:57:28;;;;;;;11.47;2.93;;;15.40;99.90;;;;;;5134213;27;20894;-62
2023/10/12 11:59:54;;;;;;;8.90;3.43;;;15.20;99.90;;;;;;5134347;27;20439;-61
2023/10/12 12:02:23;;;;;;;8.90;2.60;;;15.10;99.90;;;;;;5134549;27;20454;-62
2023/10/12 12:04:51;;;;;;;8.13;4.20;;;15.10;99.90;;;;;;5133926;27;20509;-63
2023/10/12 12:07:18;;;;;;;7.30;2.70;;;15.00;99.90;;;;;;5133725;27;20438;-63
2023/10/12 12:09:48;;;;;;;9.33;3.03;;;15.00;99.90;;;;;;5134353;27;20444;-61
2023/10/12 12:12:16;;;;;;;6.87;2.87;;;15.10;99.90;;;;;;5134641;27;20468;-63
2023/10/12 12:14:46;;;;;;;8.43;3.67;;;15.20;99.90;;;;;;5134243;27;20440;-62
2023/10/12 12:17:13;;;;;;;6.10;2.80;;;15.30;99.90;;;;;;5134640;27;20471;-60
2023/10/12 12:19:41;;;;;;;4.77;2.53;;;15.30;99.90;;;;;;5134163;27;20452;-62
2023/10/12 12:22:10;;;;;;;6.57;2.80;;;15.30;99.90;;;;;;5134821;27;20468;-63
2023/10/12 12:24:41;;;;;;;9.00;2.80;;;15.30;99.90;;;;;;5134908;27;20436;-62
2023/10/12 12:27:22;;;;;;;14.97;3.10;;;15.20;99.90;;;;;;5134148;27;20477;-62
2023/10/12 12:29:49;;;;;;;9.80;2.53;;;15.10;99.90;;;;;;5134638;27;20425;-59
2023/10/12 12:32:18;;;;;;;8.57;2.60;;;14.90;99.90;;;;;;5134824;27;20550;-61
2023/10/12 12:34:47;;;;;;;11.03;2.90;;;14.80;99.90;;;;;;5137834;27;20516;-62
2023/10/12 12:37:17;;;;;;;12.73;3.83;;;14.60;99.90;;;;;;5137641;27;20441;-61
2023/10/12 12:39:53;;;;;;;6.70;2.77;;;14.40;99.90;;;;;;5138304;27;20532;-62
2023/10/12 12:42:20;;;;;;;6.80;2.50;;;14.30;99.90;;;;;;5137883;27;20823;-62
2023/10/12 12:44:47;;;;;;;6.40;2.47;;;14.30;99.90;;;;;;5138188;27;20871;-61
2023/10/12 12:47:16;;;;;;;6.67;2.37;;;14.20;99.90;;;;;;5138036;27;20440;-61
2023/10/12 12:49:43;;;;;;;8.10;2.80;;;14.20;99.90;;;;;;5138246;27;20492;-61
2023/10/12 12:52:12;;;;;;;8.53;3.50;;;14.20;99.90;;;;;;5138757;27;20457;-62
2023/10/12 12:54:39;;;;;;;4.60;2.80;;;14.20;99.90;;;;;;5138134;27;20484;-61
2023/10/12 12:57:06;;;;;;;6.50;3.87;;;14.20;99.90;;;;;;5137959;27;20440;-62
2023/10/12 12:59:33;;;;;;;14.03;3.63;;;14.20;99.90;;;;;;5138750;27;20443;-62
2023/10/12 13:02:02;;;;;;;8.37;3.73;;;14.30;99.90;;;;;;5137678;27;20825;-62
2023/10/12 13:04:29;;;;;;;11.53;4.60;;;14.40;99.90;;;;;;5137333;27;20444;-61
2023/10/12 13:06:56;;;;;;;7.50;3.80;;;14.50;99.90;;;;;;5137511;27;20531;-60
2023/10/12 13:09:29;;;;;;;9.17;4.30;;;14.60;99.90;;;;;;5137243;27;20436;-61
2023/10/12 13:11:56;;;;;;;7.20;3.83;;;14.70;99.90;;;;;;5136852;27;20533;-61
2023/10/12 13:14:23;;;;;;;6.13;3.10;;;14.80;99.90;;;;;;5137452;27;20476;-62
2023/10/12 13:16:51;;;;;;;6.37;3.63;;;14.90;99.90;;;;;;5137361;27;20447;-62
2023/10/12 13:19:19;;;;;;;11.57;4.67;;;14.90;99.90;;;;;;5137176;27;20444;-62
2023/10/12 13:21:46;;;;;;;6.43;2.97;;;14.90;99.90;;;;;;5136780;27;20467;-62
2023/10/12 13:24:13;;;;;;;6.03;3.47;;;14.80;99.90;;;;;;5137749;27;20509;-62
2023/10/12 13:26:44;;;;;;;5.40;2.60;;;14.80;99.90;;;;;;5137195;27;20433;-61
2023/10/12 13:29:12;;;;;;;10.10;3.40;;;14.80;99.90;;;;;;5136924;27;20985;-61
2023/10/12 13:31:39;;;;;;;8.87;3.00;;;14.70;99.90;;;;;;5136457;27;20451;-62
2023/10/12 13:34:06;;;;;;;9.00;4.40;;;14.60;99.90;;;;;;5136632;27;20472;-61
2023/10/12 13:36:33;;;;;;;7.60;3.80;;;14.60;99.90;;;;;;5136729;27;20444;-64